Time;durP1;ratioP1;P1;durP2;ratioP2;P2;SDS_P1;SDS_P2;PMS_P1;PMS_P2;Temp;Humidity;BMP_temperature;BMP_pressure;BME280_temperature;BME280_humidity;BME280_pressure;Samples;Min_cycle;Max_cycle;Signal;HPM_P1;HPM_P2
2022/01/23 00:00:05;;;;;;;22.02;12.45;;;;;;;10.09;57.68;102829.41;679709;29;1143;-85
2022/01/23 00:00:32;;;;;;;21.55;12.80;;;;;;;10.06;58.24;102816.19;679797;29;1470;-85
2022/01/23 00:00:55;;;;;;;19.92;12.52;;;;;;;10.13;57.91;102820.97;680045;29;989;-84
2022/01/23 00:01:16;;;;;;;20.92;12.60;;;;;;;10.11;58.01;102825.19;677270;29;1467;-84
2022/01/23 00:01:44;;;;;;;21.65;12.77;;;;;;;10.12;57.75;102824.38;679829;29;1509;-84
2022/01/23 00:02:12;;;;;;;23.17;13.85;;;;;;;10.10;58.09;102820.78;680039;29;1079;-84
2022/01/23 00:02:35;;;;;;;22.90;13.45;;;;;;;10.17;57.93;102832.50;679192;29;1276;-84
2022/01/23 00:02:59;;;;;;;20.02;12.82;;;;;;;10.09;57.87;102824.19;679810;29;1275;-84
2022/01/23 00:03:20;;;;;;;19.55;12.40;;;;;;;10.06;57.98;102821.41;677428;29;1130;-85
2022/01/23 00:03:45;;;;;;;21.25;12.50;;;;;;;10.06;58.14;102816.19;682738;29;1112;-84
2022/01/23 00:04:05;;;;;;;22.92;12.93;;;;;;;9.93;58.04;102817.09;682620;28;1017;-84
2022/01/23 00:04:27;;;;;;;22.30;13.00;;;;;;;9.89;58.29;102828.16;680288;29;1521;-84
2022/01/23 00:04:48;;;;;;;21.52;12.98;;;;;;;9.85;58.68;102827.06;684004;28;1272;-84
2022/01/23 00:05:08;;;;;;;21.95;13.30;;;;;;;9.76;58.67;102821.25;679988;29;1201;-85
2022/01/23 00:05:34;;;;;;;23.05;12.95;;;;;;;9.71;58.94;102819.22;677406;29;1320;-84
2022/01/23 00:05:57;;;;;;;22.78;12.70;;;;;;;9.80;58.73;102821.53;678381;29;1305;-84
2022/01/23 00:06:17;;;;;;;22.05;13.10;;;;;;;9.77;58.73;102826.53;677252;29;1309;-84
2022/01/23 00:06:38;;;;;;;20.67;13.18;;;;;;;9.77;58.73;102829.16;680068;29;1069;-84
2022/01/23 00:07:03;;;;;;;22.50;13.10;;;;;;;9.73;58.88;102821.94;674822;29;958;-85
2022/01/23 00:07:25;;;;;;;24.17;13.80;;;;;;;9.68;59.04;102818.13;679911;29;1325;-84
2022/01/23 00:07:46;;;;;;;22.13;13.98;;;;;;;9.68;58.82;102823.34;679097;29;1313;-84
2022/01/23 00:08:07;;;;;;;21.05;13.90;;;;;;;9.69;58.79;102817.31;680036;29;1199;-84
2022/01/23 00:08:27;;;;;;;19.80;13.30;;;;;;;9.66;59.29;102819.75;677471;29;718;-84
2022/01/23 00:08:48;;;;;;;20.13;13.67;;;;;;;9.68;59.36;102823.34;679911;29;1163;-84
2022/01/23 00:09:09;;;;;;;19.30;13.15;;;;;;;9.77;58.82;102817.84;677343;29;1281;-85
2022/01/23 00:09:30;;;;;;;19.07;13.37;;;;;;;9.83;59.12;102828.66;682276;28;1527;-84
2022/01/23 00:09:51;;;;;;;21.17;13.38;;;;;;;9.73;58.96;102820.22;677202;29;1239;-84
2022/01/23 00:10:12;;;;;;;22.67;13.37;;;;;;;9.73;59.25;102821.94;682638;29;1156;-85
2022/01/23 00:10:33;;;;;;;22.98;13.23;;;;;;;9.77;58.88;102812.63;677337;29;1586;-84
2022/01/23 00:10:55;;;;;;;21.20;13.45;;;;;;;9.72;59.04;102810.59;679283;29;1385;-84
2022/01/23 00:11:16;;;;;;;21.00;13.40;;;;;;;9.73;59.24;102822.84;677354;29;1294;-83
2022/01/23 00:11:43;;;;;;;21.50;13.38;;;;;;;9.76;58.90;102827.34;685248;28;1315;-84
2022/01/23 00:12:10;;;;;;;21.98;13.10;;;;;;;9.78;59.01;102822.25;679923;29;1278;-84
2022/01/23 00:12:35;;;;;;;21.40;13.50;;;;;;;9.72;59.06;102825.38;674776;29;1291;-84
2022/01/23 00:13:08;;;;;;;21.02;13.40;;;;;;;9.71;59.27;102824.44;674843;29;1134;-85
2022/01/23 00:13:36;;;;;;;22.75;13.73;;;;;;;9.77;58.94;102823.06;680018;29;1175;-84
2022/01/23 00:17:53;;;;;;;21.63;12.30;;;;;;;9.62;59.52;102818.63;674516;29;1329;-84
2022/01/23 00:18:13;;;;;;;20.75;11.60;;;;;;;9.55;59.51;102812.13;676655;29;1434;-85
2022/01/23 00:18:34;;;;;;;20.13;11.87;;;;;;;9.62;59.44;102812.50;679810;29;1322;-84
2022/01/23 00:18:55;;;;;;;19.73;12.18;;;;;;;9.62;59.42;102815.13;677101;29;1240;-85
2022/01/23 00:19:15;;;;;;;21.40;12.52;;;;;;;9.63;59.51;102814.34;675332;29;1260;-85
2022/01/23 00:19:36;;;;;;;22.67;12.90;;;;;;;9.60;59.62;102820.25;679317;29;1255;-84
2022/01/23 00:19:59;;;;;;;22.73;13.10;;;;;;;9.64;59.70;102827.47;679538;29;1182;-84
2022/01/23 00:20:19;;;;;;;23.27;13.07;;;;;;;9.60;59.74;102826.34;679742;29;1291;-84
2022/01/23 00:20:40;;;;;;;23.13;13.27;;;;;;;9.58;59.40;102822.75;677165;29;1268;-84
2022/01/23 00:21:06;;;;;;;22.33;12.90;;;;;;;9.49;59.89;102810.81;677267;29;1249;-84
2022/01/23 00:21:26;;;;;;;20.23;12.95;;;;;;;9.44;59.96;102810.50;677173;29;1185;-84
2022/01/23 00:21:51;;;;;;;22.75;12.30;;;;;;;9.46;60.04;102819.31;671387;29;1114;-85
2022/01/23 00:22:12;;;;;;;24.55;12.73;;;;;;;9.46;60.01;102822.84;678575;29;1085;-85
2022/01/23 00:23:34;;;;;;;19.65;12.10;;;;;;;9.30;60.27;102826.16;669684;29;1407;-85
2022/01/23 00:30:48;;;;;;;16.15;10.60;;;;;;;8.92;61.80;102832.31;682015;29;1304;-85
2022/01/23 00:31:43;;;;;;;16.83;10.95;;;;;;;8.75;62.40;102832.06;679944;29;1016;-84
2022/01/23 00:32:04;;;;;;;16.27;10.25;;;;;;;8.71;62.24;102827.41;678081;29;1544;-85
2022/01/23 00:32:25;;;;;;;16.38;10.45;;;;;;;8.65;62.20;102824.38;677478;29;758;-84
2022/01/23 00:32:46;;;;;;;18.48;10.35;;;;;;;8.57;62.46;102828.13;675648;29;1125;-84
2022/01/23 00:33:08;;;;;;;17.70;10.27;;;;;;;8.62;62.65;102822.47;674730;29;1116;-84
2022/01/23 00:33:29;;;;;;;15.77;10.02;;;;;;;8.61;62.49;102831.03;679948;29;1270;-84
2022/01/23 00:33:51;;;;;;;17.00;10.32;;;;;;;8.59;62.27;102832.66;681985;29;1173;-84
2022/01/23 00:34:12;;;;;;;17.73;10.60;;;;;;;8.61;62.59;102835.38;677270;29;1287;-84
2022/01/23 00:34:32;;;;;;;17.30;10.60;;;;;;;8.58;62.30;102827.31;676670;29;1178;-84
2022/01/23 00:34:53;;;;;;;15.27;10.20;;;;;;;8.55;62.43;102832.34;679667;29;1546;-85
2022/01/23 00:35:14;;;;;;;15.32;10.23;;;;;;;8.67;62.37;102833.22;679851;29;951;-85
2022/01/23 00:35:36;;;;;;;16.10;10.30;;;;;;;8.70;62.23;102841.25;677327;29;1273;-84
2022/01/23 00:35:57;;;;;;;17.00;10.43;;;;;;;8.68;62.63;102836.72;677400;29;1138;-84
2022/01/23 00:36:17;;;;;;;16.83;10.43;;;;;;;8.66;62.33;102838.31;677307;29;1286;-84
2022/01/23 00:36:56;;;;;;;15.70;10.07;;;;;;;8.63;62.30;102826.91;679841;29;1041;-84
2022/01/23 00:37:17;;;;;;;14.80;9.68;;;;;;;8.56;62.30;102829.84;679789;29;1120;-85
2022/01/23 00:37:37;;;;;;;14.40;9.60;;;;;;;8.62;62.56;102847.63;683172;28;1204;-84
2022/01/23 00:37:59;;;;;;;14.60;9.73;;;;;;;8.63;62.62;102844.22;677243;29;1149;-84
2022/01/23 00:38:19;;;;;;;13.60;9.63;;;;;;;8.53;62.48;102831.34;679903;29;1076;-84
2022/01/23 00:38:40;;;;;;;15.90;10.00;;;;;;;8.55;62.53;102840.13;685997;28;1816;-84
2022/01/23 00:39:03;;;;;;;17.70;10.10;;;;;;;8.48;62.45;102821.47;682609;29;1710;-84
2022/01/23 00:39:24;;;;;;;16.98;9.70;;;;;;;8.58;62.63;102842.94;682287;29;1656;-84
2022/01/23 00:39:47;;;;;;;15.83;9.63;;;;;;;8.50;62.83;102838.09;679265;29;2328;-84
2022/01/23 00:40:10;;;;;;;15.77;9.60;;;;;;;8.55;62.49;102834.94;678878;29;1322;-84
2022/01/23 00:40:34;;;;;;;17.05;10.10;;;;;;;8.58;62.41;102838.66;679274;29;1169;-84
2022/01/23 00:40:54;;;;;;;16.80;10.10;;;;;;;8.59;62.71;102831.72;680007;29;926;-84
2022/01/23 00:41:15;;;;;;;14.82;9.63;;;;;;;8.54;62.65;102831.41;676922;29;1384;-84
2022/01/23 00:41:35;;;;;;;14.77;9.77;;;;;;;8.56;62.45;102835.06;677525;29;997;-84
2022/01/23 00:41:56;;;;;;;15.40;10.07;;;;;;;8.51;62.44;102836.41;685190;28;1286;-84
2022/01/23 00:42:17;;;;;;;15.37;10.20;;;;;;;8.47;62.62;102831.78;685115;28;1226;-84
2022/01/23 00:42:37;;;;;;;14.93;10.32;;;;;;;8.47;62.55;102831.78;674712;29;1074;-84
2022/01/23 00:43:00;;;;;;;16.08;10.32;;;;;;;8.55;62.72;102851.47;679828;28;1302;-84
2022/01/23 00:43:29;;;;;;;17.00;10.23;;;;;;;8.54;62.37;102843.53;682130;29;1576;-84
2022/01/23 00:43:52;;;;;;;15.48;9.68;;;;;;;8.59;62.51;102844.75;684676;28;984;-85
2022/01/23 00:44:12;;;;;;;14.27;9.50;;;;;;;8.47;62.72;102827.50;679888;29;1065;-84
2022/01/23 00:44:35;;;;;;;14.80;9.90;;;;;;;8.41;62.99;102832.25;685317;28;1060;-84
2022/01/23 00:45:24;;;;;;;16.17;9.98;;;;;;;8.36;62.93;102828.44;679830;29;1123;-85
2022/01/23 00:45:47;;;;;;;15.75;9.77;;;;;;;8.33;63.08;102826.53;682373;28;1143;-84
2022/01/23 00:46:40;;;;;;;17.00;9.50;;;;;;;8.37;63.52;102840.66;682209;29;1274;-84
2022/01/23 00:47:04;;;;;;;15.52;9.75;;;;;;;8.34;63.45;102836.13;682489;28;1285;-85
2022/01/23 00:47:24;;;;;;;14.85;9.77;;;;;;;8.33;63.43;102841.22;679979;28;867;-85
2022/01/23 00:47:45;;;;;;;18.00;10.00;;;;;;;8.37;63.45;102840.66;678775;29;1105;-84
2022/01/23 00:48:08;;;;;;;17.30;9.40;;;;;;;8.40;62.87;102839.97;682430;28;1176;-84
2022/01/23 00:48:34;;;;;;;16.95;9.60;;;;;;;8.30;63.29;102828.00;679757;29;1611;-84
2022/01/23 00:49:25;;;;;;;15.27;9.38;;;;;;;8.33;63.33;102830.81;674615;29;1199;-84
2022/01/23 00:49:45;;;;;;;12.70;8.80;;;;;;;8.29;63.40;102831.41;681960;28;1365;-84
2022/01/23 00:50:06;;;;;;;13.38;8.80;;;;;;;8.30;63.07;102828.00;682490;29;1067;-85
2022/01/23 00:50:29;;;;;;;14.50;9.40;;;;;;;8.25;63.19;102829.38;677338;29;1217;-85
2022/01/23 00:50:49;;;;;;;15.45;10.02;;;;;;;8.33;63.48;102842.16;679254;29;1260;-85
2022/01/23 00:51:10;;;;;;;14.87;9.83;;;;;;;8.32;63.21;102832.53;677320;29;1098;-85
2022/01/23 00:51:32;;;;;;;14.52;9.90;;;;;;;8.35;63.33;102842.22;679941;29;725;-85
2022/01/23 00:51:54;;;;;;;14.42;9.32;;;;;;;8.34;63.27;102840.44;677126;29;1088;-85
2022/01/23 00:52:17;;;;;;;15.10;9.00;;;;;;;8.36;63.09;102847.56;685156;28;1494;-84
2022/01/23 00:52:37;;;;;;;14.85;8.48;;;;;;;8.32;63.36;102829.94;682299;29;1254;-84
2022/01/23 00:52:58;;;;;;;15.10;8.87;;;;;;;8.33;63.29;102833.41;675814;29;1173;-84
2022/01/23 00:53:19;;;;;;;15.17;8.70;;;;;;;8.37;62.93;102835.47;685189;28;1308;-84
2022/01/23 00:53:39;;;;;;;13.43;8.82;;;;;;;8.31;63.61;102837.63;682392;28;1543;-84
2022/01/23 00:54:03;;;;;;;14.02;8.95;;;;;;;8.39;63.54;102845.94;682593;29;1067;-84
2022/01/23 00:54:25;;;;;;;15.24;9.30;;;;;;;8.33;62.98;102831.75;679930;29;1504;-85
2022/01/23 00:54:45;;;;;;;14.85;9.55;;;;;;;8.33;63.12;102833.41;680628;29;1273;-85
2022/01/23 00:55:20;;;;;;;13.73;9.23;;;;;;;8.38;63.29;102851.94;679897;29;979;-84
2022/01/23 00:55:44;;;;;;;16.42;9.23;;;;;;;8.26;63.38;102829.50;681792;29;1397;-84
2022/01/23 00:56:11;;;;;;;15.93;9.15;;;;;;;8.29;63.21;102841.81;679691;29;1108;-84
2022/01/23 00:56:33;;;;;;;13.43;9.35;;;;;;;8.29;63.15;102847.03;677713;29;1356;-84
2022/01/23 00:56:55;;;;;;;13.95;9.65;;;;;;;8.21;63.40;102844.78;677001;29;1418;-84
2022/01/23 00:57:16;;;;;;;15.65;10.10;;;;;;;8.22;63.42;102843.97;679765;29;1310;-85
2022/01/23 00:57:36;;;;;;;16.70;10.00;;;;;;;8.26;63.30;102855.50;681880;28;1218;-84
2022/01/23 00:57:57;;;;;;;16.65;9.65;;;;;;;8.22;63.95;102843.97;679964;29;1024;-84
2022/01/23 00:58:23;;;;;;;16.60;9.90;;;;;;;8.22;63.39;102845.66;680013;29;733;-85
2022/01/23 00:58:44;;;;;;;16.00;10.35;;;;;;;8.26;63.90;102852.00;671788;29;1216;-85
2022/01/23 00:59:06;;;;;;;15.18;9.82;;;;;;;8.31;63.52;102861.97;677201;29;1217;-85
2022/01/23 00:59:27;;;;;;;15.18;9.63;;;;;;;8.18;63.66;102849.75;677104;29;868;-84
2022/01/23 00:59:47;;;;;;;16.08;9.75;;;;;;;8.18;63.57;102854.94;676163;29;1171;-85
2022/01/23 01:00:09;;;;;;;15.60;10.20;;;;;;;8.16;63.73;102858.25;677189;29;1060;-84
2022/01/23 01:00:31;;;;;;;15.65;10.00;;;;;;;8.22;63.70;102859.59;685103;28;1247;-84
2022/01/23 01:00:51;;;;;;;14.63;10.00;;;;;;;8.22;63.75;102859.59;682156;29;1288;-84
2022/01/23 01:01:14;;;;;;;16.65;10.52;;;;;;;8.18;63.91;102854.94;680114;28;1435;-85
2022/01/23 01:01:34;;;;;;;18.02;11.45;;;;;;;8.19;63.73;102848.97;680310;29;1502;-84
2022/01/23 01:01:55;;;;;;;19.38;11.15;;;;;;;8.19;63.88;102856.78;682531;29;1174;-84
2022/01/23 01:02:16;;;;;;;17.93;10.63;;;;;;;8.24;63.73;102862.31;679109;29;1506;-84
2022/01/23 01:02:36;;;;;;;18.25;10.43;;;;;;;8.20;63.42;102853.38;677098;29;1076;-84
2022/01/23 01:02:58;;;;;;;17.50;10.90;;;;;;;8.18;63.92;102839.34;682525;29;1180;-84
2022/01/23 01:03:18;;;;;;;17.45;10.48;;;;;;;8.22;63.49;102845.66;679770;29;1903;-84
2022/01/23 01:03:39;;;;;;;15.87;10.07;;;;;;;8.17;63.50;102850.53;682489;28;1047;-84
2022/01/23 01:04:00;;;;;;;16.63;9.82;;;;;;;8.17;63.74;102847.94;679754;28;1339;-84
2022/01/23 01:04:21;;;;;;;15.68;9.77;;;;;;;8.25;63.78;102850.19;679816;29;1205;-84
2022/01/23 01:04:41;;;;;;;17.27;9.87;;;;;;;8.20;63.72;102848.19;682359;28;1442;-85
2022/01/23 01:05:03;;;;;;;16.92;9.70;;;;;;;8.20;63.65;102845.56;679877;29;1020;-85
2022/01/23 01:05:26;;;;;;;16.83;9.70;;;;;;;8.34;63.74;102859.56;679728;29;1557;-84
2022/01/23 01:05:46;;;;;;;17.35;9.60;;;;;;;8.25;63.53;102856.31;682340;29;1159;-84
2022/01/23 01:06:07;;;;;;;16.90;9.40;;;;;;;8.21;63.54;102844.78;679747;29;1133;-84
2022/01/23 01:06:28;;;;;;;16.98;9.50;;;;;;;8.27;63.76;102856.41;679934;29;823;-84
2022/01/23 01:06:48;;;;;;;15.07;9.20;;;;;;;8.22;63.55;102845.66;679873;29;1289;-84
2022/01/23 01:07:09;;;;;;;15.48;9.70;;;;;;;8.19;63.57;102846.38;682363;29;1078;-85
2022/01/23 01:07:30;;;;;;;16.83;9.90;;;;;;;8.21;63.53;102849.06;679723;29;1328;-84
2022/01/23 01:07:50;;;;;;;16.83;10.35;;;;;;;8.17;63.39;102847.94;671678;29;1543;-85
2022/01/23 01:08:11;;;;;;;16.83;10.18;;;;;;;8.19;63.56;102846.38;677294;29;1259;-84
2022/01/23 01:08:32;;;;;;;15.60;9.90;;;;;;;8.32;63.45;102862.84;679870;29;1181;-84
2022/01/23 01:08:55;;;;;;;14.90;9.85;;;;;;;8.25;63.36;102847.59;682285;29;1163;-85
2022/01/23 01:09:15;;;;;;;15.10;9.60;;;;;;;8.42;63.16;102839.28;679584;29;1327;-84
2022/01/23 01:09:48;;;;;;;14.93;9.40;;;;;;;8.59;62.85;102839.53;679403;29;1275;-85
2022/01/23 01:10:16;;;;;;;13.93;8.90;;;;;;;8.69;62.14;102841.13;679907;29;1020;-84
2022/01/23 01:10:49;;;;;;;15.30;9.20;;;;;;;8.69;62.42;102839.44;679759;29;1178;-84
2022/01/23 01:12:03;;;;;;;18.88;9.30;;;;;;;8.76;61.77;102846.88;681325;28;1185;-85
2022/01/23 01:12:28;;;;;;;18.00;9.23;;;;;;;8.42;62.39;102839.28;679910;29;819;-85
2022/01/23 01:12:51;;;;;;;14.48;8.70;;;;;;;8.36;62.46;102837.16;677128;29;1117;-85
2022/01/23 01:13:13;;;;;;;12.55;8.30;;;;;;;8.39;62.76;102839.06;682350;29;1272;-85
2022/01/23 01:14:25;;;;;;;12.50;8.50;;;;;;;8.33;62.70;102844.75;679845;29;1074;-84
2022/01/23 01:15:01;;;;;;;12.48;8.38;;;;;;;8.29;63.22;102841.81;684798;28;1400;-84
2022/01/23 01:15:30;;;;;;;11.70;8.10;;;;;;;8.38;62.70;102831.13;682107;28;931;-84
2022/01/23 01:16:01;;;;;;;12.48;8.52;;;;;;;8.58;62.60;102836.06;676960;29;1323;-85
2022/01/23 01:16:57;;;;;;;12.35;7.85;;;;;;;8.58;62.10;102833.44;681681;28;1698;-84
2022/01/23 01:17:34;;;;;;;12.15;8.30;;;;;;;8.72;62.01;102833.53;680386;29;1323;-84
2022/01/23 01:31:36;;;;;;;11.40;7.70;;;;;;;9.01;60.59;102795.53;679688;29;1278;-84
2022/01/23 01:32:02;;;;;;;11.50;7.50;;;;;;;9.00;60.71;102799.88;683652;28;1195;-84
2022/01/23 01:32:41;;;;;;;11.20;7.10;;;;;;;9.01;60.61;102805.97;682620;29;815;-84
2022/01/23 01:33:22;;;;;;;12.98;7.72;;;;;;;8.88;60.54;102793.81;682319;29;1386;-84
2022/01/23 01:34:41;;;;;;;15.02;7.28;;;;;;;8.94;60.13;102786.44;679586;29;1471;-84
2022/01/23 01:35:28;;;;;;;11.02;6.88;;;;;;;8.96;60.68;102786.53;680373;29;1393;-84
2022/01/23 01:36:51;;;;;;;14.00;6.60;;;;;;;9.09;60.15;102783.03;676953;29;1775;-84
2022/01/23 01:37:13;;;;;;;11.45;6.60;;;;;;;9.15;60.30;102789.56;677151;29;1141;-84
2022/01/23 01:37:34;;;;;;;10.30;6.40;;;;;;;9.09;60.05;102785.66;679669;29;1243;-84
2022/01/23 01:37:55;;;;;;;13.25;6.47;;;;;;;9.14;60.20;102799.88;674489;29;1211;-84
2022/01/23 01:38:15;;;;;;;13.20;6.20;;;;;;;9.02;60.15;102790.44;677299;29;981;-84
2022/01/23 01:38:36;;;;;;;14.50;6.50;;;;;;;9.05;60.43;102787.16;680134;29;1446;-84
2022/01/23 01:38:56;;;;;;;12.35;6.82;;;;;;;9.12;60.40;102793.66;685067;28;1207;-84
2022/01/23 01:39:23;;;;;;;12.40;7.30;;;;;;;9.13;59.91;102785.03;682256;29;1388;-84
2022/01/23 01:39:44;;;;;;;11.52;7.20;;;;;;;9.23;59.80;102796.97;684074;28;1382;-84
2022/01/23 01:40:06;;;;;;;10.07;7.20;;;;;;;9.23;59.97;102799.59;683003;28;1188;-84
2022/01/23 01:40:27;;;;;;;10.70;7.15;;;;;;;9.19;59.90;102801.09;679773;29;1366;-84
2022/01/23 01:40:48;;;;;;;12.60;7.15;;;;;;;9.17;59.73;102803.56;682262;28;1263;-84
2022/01/23 01:41:08;;;;;;;12.90;7.00;;;;;;;9.09;60.03;102798.69;687685;28;1069;-84
2022/01/23 01:41:29;;;;;;;11.63;7.15;;;;;;;9.06;59.97;102804.56;679809;29;1055;-84
2022/01/23 01:41:51;;;;;;;9.63;6.70;;;;;;;8.82;60.51;102799.53;679096;29;1358;-84
2022/01/23 01:42:12;;;;;;;9.48;6.38;;;;;;;8.75;60.94;102798.22;679528;28;1153;-84
2022/01/23 01:42:32;;;;;;;10.07;6.32;;;;;;;8.86;60.56;102796.31;677264;29;1211;-84
2022/01/23 01:42:53;;;;;;;9.75;6.55;;;;;;;8.93;60.67;102805.47;682493;28;1319;-85
2022/01/23 01:43:15;;;;;;;9.55;6.60;;;;;;;8.97;60.61;102799.63;682209;28;1988;-85
2022/01/23 01:43:35;;;;;;;10.27;6.35;;;;;;;9.02;60.45;102794.75;680277;29;1195;-84
2022/01/23 01:43:57;;;;;;;10.50;6.10;;;;;;;9.04;60.27;102795.75;677240;29;1029;-84
2022/01/23 01:44:40;;;;;;;9.80;6.05;;;;;;;9.12;59.87;102804.06;682091;29;1012;-84
2022/01/23 01:45:24;;;;;;;10.10;6.60;;;;;;;9.12;60.10;102798.88;682319;29;1138;-84
2022/01/23 01:45:49;;;;;;;11.70;6.30;;;;;;;9.11;59.91;102791.84;679721;28;1065;-84
2022/01/23 01:46:12;;;;;;;11.35;6.40;;;;;;;9.09;60.02;102793.47;684893;28;1378;-84
2022/01/23 01:46:40;;;;;;;11.82;6.82;;;;;;;9.13;59.68;102788.56;679333;29;1345;-84
2022/01/23 01:47:00;;;;;;;12.25;6.70;;;;;;;9.23;60.17;102800.50;677167;29;920;-84
2022/01/23 01:47:27;;;;;;;10.45;6.20;;;;;;;9.19;59.82;102790.66;682311;29;1406;-84
2022/01/23 01:48:01;;;;;;;9.15;6.00;;;;;;;9.02;59.69;102802.56;679762;29;1417;-84
2022/01/23 01:48:25;;;;;;;12.15;6.40;;;;;;;9.04;60.10;102793.16;679834;29;816;-84
2022/01/23 01:48:52;;;;;;;11.98;6.43;;;;;;;9.18;59.94;102801.88;678625;29;1280;-84
2022/01/23 01:49:13;;;;;;;9.85;6.38;;;;;;;9.12;59.80;102794.56;674418;29;1315;-84
2022/01/23 01:49:34;;;;;;;9.20;6.18;;;;;;;9.15;59.84;102801.69;679277;29;1226;-85
2022/01/23 01:49:56;;;;;;;9.02;6.45;;;;;;;9.08;59.61;102791.66;679754;29;971;-84
2022/01/23 01:50:17;;;;;;;10.90;6.90;;;;;;;9.16;60.19;102798.28;674528;29;1294;-84
2022/01/23 01:50:43;;;;;;;12.27;6.97;;;;;;;9.24;60.02;102812.72;677114;29;1248;-84
2022/01/23 01:51:06;;;;;;;11.60;6.93;;;;;;;9.15;59.58;102799.09;676947;29;1291;-84
2022/01/23 01:51:31;;;;;;;12.10;6.90;;;;;;;9.08;59.84;102802.97;679416;29;1087;-84
2022/01/23 01:52:03;;;;;;;11.57;6.82;;;;;;;9.08;59.68;102802.09;677113;29;1399;-84
2022/01/23 01:52:24;;;;;;;10.35;6.93;;;;;;;9.15;59.90;102799.09;684681;28;1888;-84
2022/01/23 01:52:45;;;;;;;10.60;7.30;;;;;;;9.19;59.91;102811.50;680528;28;1256;-84
2022/01/23 01:53:06;;;;;;;11.35;7.00;;;;;;;9.18;59.26;102815.84;676466;29;1114;-84
2022/01/23 01:53:27;;;;;;;12.13;6.95;;;;;;;9.22;59.39;102816.91;682527;29;828;-84
2022/01/23 01:53:55;;;;;;;11.10;6.80;;;;;;;9.17;59.47;102802.69;683012;28;1254;-84
2022/01/23 01:54:18;;;;;;;9.93;7.13;;;;;;;9.15;59.59;102802.59;679639;28;1157;-84
2022/01/23 01:54:40;;;;;;;11.02;7.10;;;;;;;9.13;59.46;102803.28;678830;29;1487;-84
2022/01/23 01:55:10;;;;;;;11.27;6.90;;;;;;;9.16;59.53;102799.16;679772;29;1205;-84
2022/01/23 01:55:42;;;;;;;10.50;7.05;;;;;;;9.17;59.42;102802.69;677634;29;1164;-84
2022/01/23 01:56:05;;;;;;;10.05;7.07;;;;;;;9.25;59.41;102811.91;676887;29;1369;-84
2022/01/23 01:56:34;;;;;;;10.25;6.95;;;;;;;9.16;59.37;102803.50;679823;29;1245;-84
2022/01/23 01:57:11;;;;;;;11.30;7.20;;;;;;;9.17;59.76;102798.38;679721;29;996;-84
2022/01/23 01:57:44;;;;;;;11.15;7.30;;;;;;;9.16;59.31;102796.56;677329;29;1827;-84
2022/01/23 02:00:14;;;;;;;13.93;7.20;;;;;;;9.02;59.64;102794.75;679588;29;1180;-84
2022/01/23 02:00:45;;;;;;;11.90;7.30;;;;;;;8.94;59.67;102801.13;675599;29;1097;-84
2022/01/23 02:08:28;;;;;;;14.15;8.00;;;;;;;8.67;61.10;102788.97;686850;28;871;-84
2022/01/23 02:08:51;;;;;;;14.25;7.90;;;;;;;8.71;60.94;102804.00;679583;29;1403;-84
2022/01/23 02:09:18;;;;;;;14.52;8.70;;;;;;;8.52;61.17;102780.06;677102;29;861;-84
2022/01/23 02:09:49;;;;;;;13.70;9.18;;;;;;;8.61;61.25;102788.50;677279;29;1444;-84
2022/01/23 02:10:10;;;;;;;13.40;8.90;;;;;;;8.64;61.45;102791.34;674513;29;1162;-84
2022/01/23 02:10:32;;;;;;;13.00;8.77;;;;;;;8.63;61.31;102793.06;679863;29;1042;-84
2022/01/23 02:11:02;;;;;;;15.45;9.10;;;;;;;8.59;61.11;102788.41;680376;29;1329;-84
2022/01/23 02:11:41;;;;;;;16.10;9.35;;;;;;;8.76;60.80;102794.81;682389;29;2014;-84
2022/01/23 02:13:01;;;;;;;19.20;10.10;;;;;;;8.98;60.38;102788.41;679427;29;1411;-84
2022/01/23 02:16:03;;;;;;;17.85;10.60;;;;;;;9.00;60.03;102789.44;679893;29;1296;-84
2022/01/23 02:22:30;;;;;;;20.05;10.88;;;;;;;9.01;60.44;102780.81;680207;29;1278;-84
2022/01/23 02:23:31;;;;;;;21.55;12.48;;;;;;;9.14;59.49;102797.25;675036;29;1515;-84
2022/01/23 02:50:45;;;;;;;26.77;13.98;;;;;;;9.22;59.54;102800.38;683378;28;919;-84
2022/01/23 02:51:28;;;;;;;28.15;14.55;;;;;;;9.25;59.59;102804.09;682711;28;1162;-83
2022/01/23 02:52:04;;;;;;;27.27;14.40;;;;;;;9.27;59.82;102810.31;681775;29;1204;-83
2022/01/23 02:54:08;;;;;;;26.27;14.25;;;;;;;9.21;59.50;102816.81;682701;29;1057;-83
2022/01/23 02:55:14;;;;;;;26.77;14.13;;;;;;;9.15;59.66;102819.94;672085;29;1141;-84
2022/01/23 02:55:41;;;;;;;32.78;14.00;;;;;;;8.90;60.31;102813.03;677618;29;1276;-84
2022/01/23 02:56:21;;;;;;;30.58;13.85;;;;;;;8.73;61.03;102809.31;684978;28;1608;-84
2022/01/23 02:56:48;;;;;;;25.98;13.93;;;;;;;8.68;61.30;102811.59;677275;29;1365;-83
2022/01/23 02:57:09;;;;;;;25.65;13.70;;;;;;;8.65;61.14;102806.16;672604;29;1524;-83
2022/01/23 02:57:50;;;;;;;27.15;13.82;;;;;;;8.67;61.24;102809.81;682803;29;925;-83
2022/01/23 02:58:14;;;;;;;30.70;14.77;;;;;;;8.61;61.30;102820.63;682711;29;1040;-84
2022/01/23 02:58:56;;;;;;;26.30;14.52;;;;;;;8.70;61.74;102828.22;680204;28;1259;-83
2022/01/23 02:59:25;;;;;;;25.50;13.43;;;;;;;8.58;61.80;102809.09;677516;29;986;-83
2022/01/23 02:59:51;;;;;;;24.77;13.65;;;;;;;8.58;61.59;102819.53;685237;28;1241;-84
2022/01/23 03:00:47;;;;;;;27.65;13.90;;;;;;;8.57;61.69;102820.31;685042;28;1670;-83
2022/01/23 03:01:31;;;;;;;23.27;13.75;;;;;;;8.48;61.81;102813.69;682800;29;1145;-84
2022/01/23 03:02:41;;;;;;;28.77;14.98;;;;;;;8.49;61.77;102819.81;684512;28;1257;-84
2022/01/23 03:03:25;;;;;;;27.67;14.23;;;;;;;8.53;61.48;102810.50;677369;28;1919;-83
2022/01/23 03:04:08;;;;;;;25.75;13.90;;;;;;;8.54;61.78;102826.22;680172;29;1505;-83
2022/01/23 03:04:52;;;;;;;25.42;14.02;;;;;;;8.49;61.97;102815.47;679147;29;1168;-83
2022/01/23 03:07:16;;;;;;;25.23;14.05;;;;;;;8.55;61.60;102824.53;677368;29;1194;-83
2022/01/23 03:08:17;;;;;;;22.73;12.75;;;;;;;8.53;61.92;102832.22;682734;28;1001;-84
2022/01/23 03:11:00;;;;;;;28.88;13.90;;;;;;;8.53;61.96;102828.72;680148;29;925;-83
2022/01/23 03:11:32;;;;;;;25.38;13.00;;;;;;;8.52;61.87;102822.59;678623;28;1274;-83
2022/01/23 03:12:13;;;;;;;24.17;13.18;;;;;;;8.56;61.58;102821.13;687476;28;1364;-83
2022/01/23 03:13:47;;;;;;;23.15;13.63;;;;;;;8.49;62.19;102825.88;680160;29;1162;-84
2022/01/23 03:14:19;;;;;;;24.73;13.40;;;;;;;8.41;61.89;102827.06;679988;29;1896;-83
2022/01/23 03:14:57;;;;;;;22.38;13.25;;;;;;;8.41;61.93;102827.06;678217;29;1733;-83
2022/01/23 03:15:28;;;;;;;24.30;12.93;;;;;;;8.50;61.96;102832.00;682795;28;1141;-84
2022/01/23 03:16:12;;;;;;;25.17;13.38;;;;;;;8.52;61.97;102843.44;687402;28;1143;-84
2022/01/23 03:24:44;;;;;;;25.23;12.82;;;;;;;8.45;61.74;102829.09;685325;28;1107;-83
2022/01/23 03:26:50;;;;;;;26.20;14.10;;;;;;;8.38;62.15;102841.53;680104;29;836;-83
2022/01/23 03:28:16;;;;;;;25.73;13.32;;;;;;;8.50;62.05;102851.13;683969;28;1281;-83
2022/01/23 03:28:39;;;;;;;23.67;13.00;;;;;;;8.40;61.81;102835.66;677459;29;1713;-84
2022/01/23 03:29:23;;;;;;;23.65;12.90;;;;;;;8.41;61.90;102841.78;682698;29;1153;-84
2022/01/23 03:29:57;;;;;;;23.65;12.90;;;;;;;8.41;61.84;102842.66;678226;29;1136;-83
2022/01/23 03:30:28;;;;;;;23.70;12.90;;;;;;;8.38;62.08;102841.53;682603;29;1007;-83
2022/01/23 03:31:08;;;;;;;25.50;13.27;;;;;;;8.36;62.18;102841.47;680017;29;1096;-84
2022/01/23 03:31:33;;;;;;;26.50;12.88;;;;;;;8.26;62.33;102846.78;682788;29;985;-84
2022/01/23 03:32:54;;;;;;;22.88;12.45;;;;;;;8.27;62.33;102838.19;679970;29;1254;-84
2022/01/23 03:33:15;;;;;;;21.35;12.35;;;;;;;8.25;62.32;102847.59;677583;29;961;-84
2022/01/23 03:33:36;;;;;;;21.00;12.57;;;;;;;8.28;62.29;102842.63;678584;29;1415;-83
2022/01/23 03:33:57;;;;;;;21.17;12.00;;;;;;;8.33;62.73;102854.25;678035;29;1225;-83
2022/01/23 03:34:24;;;;;;;22.15;12.02;;;;;;;8.18;62.54;102844.53;682621;29;1388;-83
2022/01/23 03:34:44;;;;;;;22.00;12.27;;;;;;;8.15;62.40;102844.34;685216;28;1241;-83
2022/01/23 03:35:06;;;;;;;22.00;12.63;;;;;;;8.18;62.66;102839.34;685142;28;1374;-84
2022/01/23 03:35:27;;;;;;;22.10;12.00;;;;;;;8.27;62.68;102861.59;680199;29;811;-83
2022/01/23 03:35:47;;;;;;;23.95;12.20;;;;;;;8.15;62.56;102840.81;684072;28;1105;-83
2022/01/23 03:36:34;;;;;;;24.15;12.25;;;;;;;8.34;62.75;102861.25;685291;28;954;-83